createdAt,value
2023-05-25T00:01:01.076Z,84.81
2023-05-25T00:02:35.038Z,84.61
2023-05-25T00:04:07.333Z,84.59
2023-05-25T00:05:40.193Z,84.44
2023-05-25T00:07:12.351Z,84.52
2023-05-25T00:08:46.189Z,84.56
2023-05-25T00:10:18.276Z,84.66
2023-05-25T00:11:50.596Z,84.69
2023-05-25T00:13:22.734Z,84.92
2023-05-25T00:14:54.894Z,85.07
2023-05-25T00:16:27.295Z,85.02
2023-05-25T00:17:59.530Z,85.35
2023-05-25T00:19:34.725Z,85.26
2023-05-25T00:21:07.747Z,85.32
2023-05-25T00:22:40.042Z,85.28
2023-05-25T00:24:12.385Z,85.19
2023-05-25T00:25:44.837Z,85.08
2023-05-25T00:27:17.307Z,84.81
2023-05-25T00:28:49.495Z,84.86
2023-05-25T00:30:21.715Z,85.07
2023-05-25T00:31:54.517Z,85.33
2023-05-25T00:33:26.665Z,85.44
2023-05-25T00:34:58.774Z,85.56
2023-05-25T00:36:30.958Z,85.57
2023-05-25T00:39:42.759Z,85.43
2023-05-25T00:41:17.627Z,85.63
2023-05-25T00:42:49.828Z,85.58
2023-05-25T00:44:22.227Z,85.58
2023-05-25T00:45:55.052Z,85.37
2023-05-25T00:47:28.156Z,85.29
2023-05-25T00:49:00.385Z,85.46
2023-05-25T00:50:43.079Z,85.47
2023-05-25T00:52:16.046Z,85.74
2023-05-25T00:53:48.219Z,85.63
2023-05-25T00:55:20.741Z,85.51
2023-05-25T00:57:06.340Z,85.41
2023-05-25T00:58:41.689Z,85.38
2023-05-25T01:00:15.124Z,85.28
2023-05-25T01:01:48.108Z,85.72
2023-05-25T01:03:22.364Z,85.94
2023-05-25T01:04:55.414Z,86.16
2023-05-25T01:06:32.367Z,86.45
2023-05-25T01:08:05.916Z,86.37
2023-05-25T01:09:42.592Z,86.64
2023-05-25T01:11:14.883Z,86.62
2023-05-25T01:12:47.272Z,86.50
2023-05-25T01:14:22.416Z,86.42
2023-05-25T01:15:54.584Z,86.33
2023-05-25T01:17:29.504Z,86.28
2023-05-25T01:19:01.721Z,86.27
2023-05-25T01:20:34.127Z,86.01
2023-05-25T01:22:09.192Z,85.92
2023-05-25T01:23:48.701Z,86.00
2023-05-25T01:25:23.557Z,85.97
2023-05-25T01:27:10.591Z,86.17
2023-05-25T01:28:47.749Z,86.37
2023-05-25T01:30:20.576Z,86.45
2023-05-25T01:31:54.846Z,86.55
2023-05-25T01:33:28.267Z,86.63
2023-05-25T01:35:00.314Z,86.15
2023-05-25T01:36:33.609Z,86.30
2023-05-25T01:38:06.260Z,86.56
2023-05-25T01:39:38.721Z,86.48
2023-05-25T01:41:10.960Z,86.30
2023-05-25T01:42:43.227Z,86.33
2023-05-25T01:44:15.948Z,86.38
2023-05-25T01:45:48.396Z,86.47
2023-05-25T01:47:33.712Z,86.42
2023-05-25T01:49:28.481Z,86.49
2023-05-25T01:51:07.540Z,86.53
2023-05-25T01:52:44.445Z,86.52
2023-05-25T01:54:20.601Z,86.68
2023-05-25T01:56:04.814Z,86.61
2023-05-25T01:57:38.473Z,86.77
2023-05-25T01:59:11.472Z,86.84
2023-05-25T02:00:43.727Z,86.82
2023-05-25T02:02:19.095Z,86.75
2023-05-25T02:03:52.347Z,86.82
2023-05-25T02:05:24.479Z,86.83
2023-05-25T02:06:57.192Z,86.71
2023-05-25T02:08:29.430Z,86.81
2023-05-25T02:10:01.675Z,87.01
2023-05-25T02:11:36.993Z,86.99
2023-05-25T02:13:09.123Z,87.07
2023-05-25T02:14:41.701Z,87.11
2023-05-25T02:16:13.920Z,87.24
2023-05-25T02:17:46.112Z,87.20
2023-05-25T02:19:18.473Z,87.02
2023-05-25T02:20:50.736Z,87.10
2023-05-25T02:22:23.164Z,86.99
2023-05-25T02:23:55.392Z,86.86
2023-05-25T02:25:27.628Z,86.73
2023-05-25T02:26:59.797Z,86.79
2023-05-25T02:28:31.975Z,86.61
2023-05-25T02:30:04.524Z,86.63
2023-05-25T02:31:39.211Z,86.89
2023-05-25T02:33:12.031Z,87.00
2023-05-25T02:34:44.176Z,86.87
2023-05-25T02:36:16.898Z,87.07
2023-05-25T02:37:51.131Z,87.07
2023-05-25T02:39:26.839Z,87.40
2023-05-25T02:40:58.960Z,87.77
2023-05-25T02:42:31.147Z,87.76
2023-05-25T02:44:03.477Z,87.92
2023-05-25T02:45:35.827Z,88.17
2023-05-25T02:47:08.203Z,87.97
2023-05-25T02:48:42.629Z,87.80
2023-05-25T02:50:14.859Z,87.40
2023-05-25T02:51:46.976Z,87.75
2023-05-25T02:53:19.193Z,87.43
2023-05-25T02:54:51.398Z,87.45
2023-05-25T02:56:23.677Z,87.37
2023-05-25T02:57:55.954Z,87.26
2023-05-25T02:59:28.205Z,87.27
2023-05-25T03:01:00.687Z,87.57
2023-05-25T03:02:33.205Z,87.52
2023-05-25T03:04:05.516Z,87.60
2023-05-25T03:05:38.890Z,87.74
2023-05-25T03:07:10.896Z,87.61
2023-05-25T03:08:43.176Z,87.81
2023-05-25T03:10:15.431Z,87.67
2023-05-25T03:11:47.728Z,87.96
2023-05-25T03:13:19.919Z,88.18
2023-05-25T03:14:52.089Z,87.96
2023-05-25T03:16:24.291Z,87.94
2023-05-25T03:18:01.576Z,88.11
2023-05-25T03:19:34.005Z,88.37
2023-05-25T03:21:06.651Z,88.52
2023-05-25T03:22:38.829Z,88.55
2023-05-25T03:24:11.024Z,88.36
2023-05-25T03:25:43.572Z,88.24
2023-05-25T03:27:15.896Z,88.22
2023-05-25T03:28:48.082Z,88.51
2023-05-25T03:30:24.008Z,88.85
2023-05-25T03:31:56.215Z,88.90
2023-05-25T03:33:28.450Z,88.99
2023-05-25T03:35:00.792Z,89.17
2023-05-25T03:36:34.215Z,89.17
2023-05-25T03:38:06.223Z,89.08
2023-05-25T03:39:38.514Z,89.22
2023-05-25T03:41:10.765Z,88.98
2023-05-25T03:42:42.948Z,89.23
2023-05-25T03:44:15.095Z,89.14
2023-05-25T03:45:47.656Z,89.25
2023-05-25T03:47:20.408Z,89.51
2023-05-25T03:48:52.542Z,89.60
2023-05-25T03:50:24.747Z,90.02
2023-05-25T03:51:57.088Z,89.88
2023-05-25T03:53:29.281Z,89.93
2023-05-25T03:55:02.260Z,90.08
2023-05-25T03:56:34.398Z,90.13
2023-05-25T03:58:06.562Z,89.92
2023-05-25T03:59:38.691Z,89.99
2023-05-25T04:01:11.892Z,89.95
2023-05-25T04:02:44.124Z,89.73
2023-05-25T04:04:16.436Z,89.89
2023-05-25T04:05:48.640Z,89.81
2023-05-25T04:07:21.206Z,89.58
2023-05-25T04:08:53.614Z,89.27
2023-05-25T04:10:25.861Z,88.88
2023-05-25T04:11:58.005Z,88.90
2023-05-25T04:13:30.113Z,89.70
2023-05-25T04:15:04.961Z,90.11
2023-05-25T04:16:37.711Z,90.57
2023-05-25T04:18:12.426Z,91.25
2023-05-25T04:19:44.693Z,91.39
2023-05-25T04:21:17.154Z,91.69
2023-05-25T04:22:50.399Z,91.87
2023-05-25T04:24:23.067Z,91.71
2023-05-25T04:25:55.282Z,92.10
2023-05-25T04:27:28.821Z,91.96
2023-05-25T04:29:02.409Z,91.94
2023-05-25T04:30:36.160Z,92.25
2023-05-25T04:32:10.022Z,92.07
2023-05-25T04:33:42.243Z,91.96
2023-05-25T04:35:21.346Z,91.84
2023-05-25T04:36:54.191Z,92.04
2023-05-25T04:38:26.504Z,92.07
2023-05-25T04:39:58.841Z,92.59
2023-05-25T04:41:31.051Z,92.61
2023-05-25T04:43:05.514Z,92.75
2023-05-25T04:44:38.135Z,92.55
2023-05-25T04:46:10.363Z,92.35
2023-05-25T04:47:43.472Z,91.93
2023-05-25T04:49:17.336Z,91.79
2023-05-25T04:50:49.485Z,91.83
2023-05-25T04:52:21.616Z,91.89
2023-05-25T04:53:53.732Z,91.47
2023-05-25T04:55:26.063Z,91.58
2023-05-25T04:56:58.273Z,92.01
2023-05-25T04:58:30.489Z,92.68
2023-05-25T05:00:02.648Z,93.19
2023-05-25T05:01:41.429Z,93.41
2023-05-25T05:03:14.381Z,93.38
2023-05-25T05:04:46.640Z,93.87
2023-05-25T05:06:18.791Z,94.18
2023-05-25T05:07:51.055Z,94.25
2023-05-25T05:09:23.165Z,94.28
2023-05-25T05:10:55.462Z,94.73
2023-05-25T05:12:27.615Z,94.88
2023-05-25T05:13:59.800Z,94.78
2023-05-25T05:15:32.053Z,95.08
2023-05-25T05:17:04.998Z,95.23
2023-05-25T05:18:37.170Z,95.08
2023-05-25T05:20:09.702Z,95.23
2023-05-25T05:21:41.952Z,95.18
2023-05-25T05:23:14.244Z,95.18
2023-05-25T05:24:46.389Z,95.24
2023-05-25T05:26:18.628Z,95.51
2023-05-25T05:27:50.932Z,95.51
2023-05-25T05:29:23.223Z,95.23
2023-05-25T05:30:55.580Z,95.19
2023-05-25T05:32:27.756Z,94.98
2023-05-25T05:34:00.027Z,94.91
2023-05-25T05:35:32.331Z,94.66
2023-05-25T05:37:04.549Z,94.61
2023-05-25T05:38:37.611Z,94.63
2023-05-25T05:40:12.248Z,94.83
2023-05-25T05:41:45.880Z,94.85
2023-05-25T05:43:18.052Z,95.04
2023-05-25T05:44:50.236Z,94.94
2023-05-25T05:46:22.388Z,94.81
2023-05-25T05:47:54.589Z,94.91
2023-05-25T05:49:28.185Z,94.92
2023-05-25T05:51:00.328Z,94.98
2023-05-25T05:52:32.511Z,95.11
2023-05-25T05:54:05.344Z,94.93
2023-05-25T05:55:37.820Z,94.88
2023-05-25T05:57:09.993Z,94.75
2023-05-25T05:58:42.149Z,94.79
2023-05-25T06:00:15.157Z,94.90
2023-05-25T06:01:47.380Z,94.99
2023-05-25T06:03:19.668Z,95.18
2023-05-25T06:04:51.835Z,95.28
2023-05-25T06:06:24.069Z,95.35
2023-05-25T06:07:56.294Z,95.42
2023-05-25T06:09:28.418Z,95.44
2023-05-25T06:11:00.540Z,95.43
2023-05-25T06:12:32.774Z,95.75
2023-05-25T06:14:04.988Z,95.83
2023-05-25T06:15:37.387Z,95.89
2023-05-25T06:17:09.635Z,96.43
2023-05-25T06:18:42.034Z,96.62
2023-05-25T06:20:15.472Z,96.12
2023-05-25T06:21:49.960Z,95.74
2023-05-25T06:23:22.162Z,95.39
2023-05-25T06:24:54.540Z,95.09
2023-05-25T06:26:27.736Z,94.82
2023-05-25T06:27:59.975Z,94.66
2023-05-25T06:29:32.232Z,94.79
2023-05-25T06:31:04.420Z,94.96
2023-05-25T06:32:36.595Z,95.03
2023-05-25T06:34:08.768Z,95.43
2023-05-25T06:35:40.973Z,95.70
2023-05-25T06:37:13.174Z,96.22
2023-05-25T06:38:45.294Z,96.65
2023-05-25T06:40:18.440Z,97.08
2023-05-25T06:41:51.571Z,97.11
2023-05-25T06:43:23.780Z,97.33
2023-05-25T06:44:55.921Z,97.75
2023-05-25T06:46:28.163Z,97.87
2023-05-25T06:48:00.673Z,98.01
2023-05-25T06:49:33.258Z,97.88
2023-05-25T06:51:05.620Z,98.00
2023-05-25T06:52:37.797Z,98.14
2023-05-25T06:54:10.025Z,98.71
2023-05-25T06:55:42.379Z,99.10
2023-05-25T06:57:14.656Z,99.12
2023-05-25T06:58:46.797Z,99.14
2023-05-25T07:00:19.507Z,98.97
2023-05-25T07:01:51.893Z,98.70
2023-05-25T07:03:24.281Z,98.21
2023-05-25T07:04:56.468Z,97.65
2023-05-25T07:06:28.722Z,97.10
2023-05-25T07:08:00.866Z,96.23
2023-05-25T07:09:33.487Z,95.39
2023-05-25T07:11:05.774Z,95.00
2023-05-25T07:12:37.952Z,94.25
2023-05-25T07:14:10.109Z,93.16
2023-05-25T07:15:42.564Z,92.60
2023-05-25T07:17:17.263Z,91.92
2023-05-25T07:18:49.435Z,91.99
2023-05-25T07:20:22.569Z,91.83
2023-05-25T07:21:54.811Z,91.92
2023-05-25T07:23:26.965Z,92.49
2023-05-25T07:24:59.172Z,92.82
2023-05-25T07:26:32.541Z,92.92
2023-05-25T07:28:04.727Z,91.87
2023-05-25T07:29:36.920Z,91.29
2023-05-25T07:31:10.603Z,90.89
2023-05-25T07:32:42.957Z,90.60
2023-05-25T07:34:15.674Z,90.32
2023-05-25T07:35:47.787Z,89.83
2023-05-25T07:37:19.979Z,89.36
2023-05-25T07:38:52.126Z,89.44
2023-05-25T07:40:24.304Z,89.41
2023-05-25T07:41:56.433Z,89.30
2023-05-25T07:43:28.604Z,89.05
2023-05-25T07:45:01.733Z,88.14
2023-05-25T07:46:34.003Z,87.52
2023-05-25T07:48:08.072Z,86.90
2023-05-25T07:49:40.303Z,86.61
2023-05-25T07:51:12.598Z,86.24
2023-05-25T07:52:44.964Z,85.37
2023-05-25T07:54:17.134Z,85.15
2023-05-25T07:55:49.345Z,85.68
2023-05-25T07:57:21.901Z,85.38
2023-05-25T07:58:54.062Z,85.04
2023-05-25T08:00:26.228Z,86.24
2023-05-25T08:01:58.410Z,86.92
2023-05-25T08:03:47.407Z,86.95
2023-05-25T08:05:21.592Z,87.11
2023-05-25T08:06:53.959Z,87.17
2023-05-25T08:08:29.341Z,87.05
2023-05-25T08:10:01.698Z,87.33
2023-05-25T08:11:33.912Z,86.80
2023-05-25T08:13:06.418Z,87.12
2023-05-25T08:14:38.802Z,87.96
2023-05-25T08:16:11.059Z,87.89
2023-05-25T08:17:43.293Z,88.35
2023-05-25T08:19:15.449Z,88.59
2023-05-25T08:20:47.732Z,88.09
2023-05-25T08:22:20.018Z,87.65
2023-05-25T08:23:52.617Z,87.41
2023-05-25T08:25:24.723Z,87.31
2023-05-25T08:26:56.872Z,87.40
2023-05-25T08:28:28.999Z,87.24
2023-05-25T08:30:01.173Z,87.01
2023-05-25T08:31:33.945Z,87.23
2023-05-25T08:33:07.438Z,87.75
2023-05-25T08:34:39.819Z,87.48
2023-05-25T08:36:12.046Z,87.56
2023-05-25T08:37:44.528Z,87.00
2023-05-25T08:39:17.186Z,87.08
2023-05-25T08:40:56.831Z,86.25
2023-05-25T08:42:29.779Z,85.86
2023-05-25T08:44:06.759Z,85.92
2023-05-25T08:45:43.684Z,85.14
2023-05-25T08:47:18.432Z,85.24
2023-05-25T08:48:52.000Z,85.89
2023-05-25T08:50:25.873Z,85.19
2023-05-25T08:53:38.771Z,84.23
2023-05-25T08:55:11.657Z,84.07
2023-05-25T08:56:49.614Z,84.61
2023-05-25T08:58:26.190Z,84.53
2023-05-25T09:00:10.929Z,83.72
2023-05-25T09:01:46.761Z,83.15
2023-05-25T09:03:19.340Z,82.38
2023-05-25T09:04:51.554Z,83.11
2023-05-25T09:06:24.864Z,82.10
2023-05-25T09:07:56.920Z,81.40
2023-05-25T09:09:29.221Z,81.64
2023-05-25T09:11:02.689Z,81.99
2023-05-25T09:12:36.097Z,81.17
2023-05-25T09:14:09.045Z,79.67
2023-05-25T09:15:41.536Z,79.24
2023-05-25T09:17:18.021Z,78.87
2023-05-25T09:18:52.173Z,79.57
2023-05-25T09:20:25.314Z,79.20
2023-05-25T09:22:13.401Z,78.44
2023-05-25T09:23:47.051Z,78.21
2023-05-25T09:25:22.671Z,75.68
2023-05-25T09:26:54.885Z,74.83
2023-05-25T09:28:27.789Z,72.85
2023-05-25T09:30:01.575Z,72.39
2023-05-25T09:31:33.791Z,72.88
2023-05-25T09:33:12.136Z,72.15
2023-05-25T09:34:45.422Z,71.37
2023-05-25T09:36:18.348Z,72.26
2023-05-25T09:37:55.712Z,72.55
2023-05-25T09:39:29.253Z,72.39
2023-05-25T09:41:01.767Z,74.47
2023-05-25T09:42:37.287Z,73.72
2023-05-25T09:44:11.765Z,73.84
2023-05-25T09:45:44.625Z,76.26
2023-05-25T09:47:18.542Z,75.01
2023-05-25T09:48:51.877Z,76.26
2023-05-25T09:50:24.323Z,74.54
2023-05-25T09:51:56.726Z,74.26
2023-05-25T09:53:28.956Z,73.89
2023-05-25T09:55:05.392Z,73.91
2023-05-25T09:56:37.907Z,73.93
2023-05-25T09:58:10.104Z,73.89
2023-05-25T09:59:43.206Z,73.31
2023-05-25T10:01:19.347Z,72.26
2023-05-25T10:02:51.988Z,72.36
2023-05-25T10:04:24.236Z,72.32
2023-05-25T10:05:56.905Z,72.55
2023-05-25T10:07:29.583Z,72.12
2023-05-25T10:09:02.036Z,72.26
2023-05-25T10:10:34.303Z,72.43
2023-05-25T10:12:07.161Z,71.33
2023-05-25T10:13:39.934Z,70.94
2023-05-25T10:15:13.693Z,70.07
2023-05-25T10:16:50.847Z,70.74
2023-05-25T10:18:26.658Z,71.22
2023-05-25T10:20:01.836Z,69.36
2023-05-25T10:21:34.834Z,70.63
2023-05-25T10:23:18.039Z,65.98
2023-05-25T10:25:25.210Z,66.26
2023-05-25T10:27:10.768Z,64.73
2023-05-25T10:28:51.091Z,63.83
2023-05-25T10:30:24.633Z,60.47
2023-05-25T10:31:57.824Z,61.91
2023-05-25T10:35:03.125Z,61.28
2023-05-25T10:36:35.401Z,61.52
2023-05-25T10:38:07.860Z,61.57
2023-05-25T10:39:44.981Z,62.68
2023-05-25T10:41:17.252Z,62.38
2023-05-25T10:42:51.461Z,61.99
2023-05-25T10:44:24.114Z,61.26
2023-05-25T10:45:57.586Z,62.72
2023-05-25T10:47:32.800Z,65.82
2023-05-25T10:49:07.667Z,64.88
2023-05-25T10:50:40.022Z,64.50
2023-05-25T10:52:12.293Z,62.90
2023-05-25T10:53:46.342Z,63.01
2023-05-25T10:55:18.577Z,63.26
2023-05-25T10:57:10.506Z,62.58
2023-05-25T10:58:44.813Z,62.46
2023-05-25T11:00:17.441Z,62.69
2023-05-25T11:01:52.358Z,61.81
2023-05-25T11:03:44.717Z,60.51
2023-05-25T11:05:33.861Z,61.49
2023-05-25T11:07:09.093Z,61.03
2023-05-25T11:09:00.667Z,61.31
2023-05-25T11:10:48.689Z,61.29
2023-05-25T11:12:22.315Z,61.33
2023-05-25T11:13:54.379Z,60.20
2023-05-25T11:15:30.583Z,61.72
2023-05-25T11:17:15.451Z,62.03
2023-05-25T11:18:56.224Z,64.19
2023-05-25T11:20:30.514Z,59.80
2023-05-25T11:22:22.845Z,60.27
2023-05-25T11:23:57.993Z,59.67
2023-05-25T11:25:40.642Z,57.50
2023-05-25T11:27:13.272Z,57.21
2023-05-25T11:28:48.433Z,56.08
2023-05-25T11:30:20.604Z,58.22
2023-05-25T11:31:55.435Z,58.42
2023-05-25T11:33:28.257Z,62.68
2023-05-25T11:35:01.134Z,64.16
2023-05-25T11:36:35.822Z,63.16
2023-05-25T11:38:11.322Z,62.66
2023-05-25T11:39:50.526Z,62.47
2023-05-25T11:41:22.724Z,59.59
2023-05-25T11:42:56.228Z,58.18
2023-05-25T11:44:30.380Z,56.94
2023-05-25T11:46:03.422Z,58.07
2023-05-25T11:47:36.004Z,57.50
2023-05-25T11:49:10.250Z,56.75
2023-05-25T11:50:42.504Z,61.76
2023-05-25T11:52:16.029Z,59.13
2023-05-25T11:55:27.473Z,56.17
2023-05-25T11:57:00.491Z,57.71
2023-05-25T11:58:35.640Z,57.69
2023-05-25T12:00:10.022Z,59.77
2023-05-25T12:01:42.538Z,60.91
2023-05-25T12:03:33.739Z,62.08
2023-05-25T12:05:09.488Z,62.16
2023-05-25T12:06:43.157Z,61.80
2023-05-25T12:08:15.513Z,62.55
2023-05-25T12:09:47.991Z,64.42
2023-05-25T12:11:38.713Z,63.38
2023-05-25T12:13:11.819Z,63.35
2023-05-25T12:14:50.441Z,64.14
2023-05-25T12:16:23.382Z,65.35
2023-05-25T12:17:56.657Z,64.82
2023-05-25T12:19:28.920Z,65.46
2023-05-25T12:21:01.198Z,65.92
2023-05-25T12:22:33.413Z,65.88
2023-05-25T12:24:06.584Z,64.92
2023-05-25T12:25:49.791Z,64.01
2023-05-25T12:27:23.493Z,64.37
2023-05-25T12:29:06.573Z,65.74
2023-05-25T12:30:39.110Z,64.44
2023-05-25T12:32:11.378Z,64.87
2023-05-25T12:33:44.154Z,64.83
2023-05-25T12:35:16.430Z,66.28
2023-05-25T12:36:52.219Z,66.12
2023-05-25T12:38:24.630Z,65.83
2023-05-25T12:40:00.152Z,65.87
2023-05-25T12:41:35.283Z,66.93
2023-05-25T12:43:07.554Z,68.33
2023-05-25T12:44:39.758Z,67.20
2023-05-25T12:46:12.108Z,70.30
2023-05-25T12:47:46.269Z,67.86
2023-05-25T12:49:35.254Z,57.06
2023-05-25T12:51:07.453Z,59.97
2023-05-25T12:54:12.480Z,62.46
2023-05-25T12:55:44.810Z,61.67
2023-05-25T12:57:20.794Z,57.90
2023-05-25T12:58:56.064Z,55.23
2023-05-25T13:00:32.334Z,58.22
2023-05-25T13:02:07.661Z,56.68
2023-05-25T13:03:40.092Z,58.83
2023-05-25T13:05:38.790Z,56.36
2023-05-25T13:07:11.649Z,53.96
2023-05-25T13:08:43.863Z,52.34
2023-05-25T13:10:18.263Z,50.86
2023-05-25T13:11:50.633Z,46.82
2023-05-25T13:13:23.040Z,48.45
2023-05-25T13:14:55.376Z,50.34
2023-05-25T13:16:28.329Z,47.92
2023-05-25T13:18:00.824Z,49.14
2023-05-25T13:19:33.134Z,50.38
2023-05-25T13:21:05.365Z,51.53
2023-05-25T13:22:37.564Z,52.30
2023-05-25T13:24:09.964Z,52.56
2023-05-25T13:25:42.198Z,52.86
2023-05-25T13:27:14.338Z,53.94
2023-05-25T13:28:46.965Z,54.10
2023-05-25T13:30:21.160Z,51.82
2023-05-25T13:31:53.441Z,52.42
2023-05-25T13:33:25.664Z,50.96
2023-05-25T13:35:00.204Z,51.66
2023-05-25T13:36:35.415Z,49.23
2023-05-25T13:38:07.705Z,50.11
2023-05-25T13:39:39.982Z,46.49
2023-05-25T13:41:13.010Z,47.12
2023-05-25T13:42:45.177Z,47.09
2023-05-25T13:44:17.682Z,47.40
2023-05-25T13:45:50.322Z,49.77
2023-05-25T13:47:22.583Z,49.44
2023-05-25T13:48:54.843Z,48.90
2023-05-25T13:50:27.054Z,50.12
2023-05-25T13:51:59.401Z,49.34
2023-05-25T13:53:32.083Z,49.36
2023-05-25T13:55:04.670Z,48.81
2023-05-25T13:58:21.199Z,51.33
2023-05-25T13:59:53.484Z,50.75
2023-05-25T14:01:28.072Z,47.67
2023-05-25T14:03:00.407Z,49.72
2023-05-25T14:04:32.860Z,51.54
2023-05-25T14:06:05.241Z,49.86
2023-05-25T14:07:38.065Z,51.02
2023-05-25T14:09:12.092Z,48.66
2023-05-25T14:10:45.217Z,49.04
2023-05-25T14:12:17.642Z,47.88
2023-05-25T14:13:49.757Z,47.97
2023-05-25T14:15:21.901Z,46.04
2023-05-25T14:16:54.124Z,46.28
2023-05-25T14:18:26.272Z,45.92
2023-05-25T14:19:59.231Z,46.32
2023-05-25T14:21:31.865Z,47.37
2023-05-25T14:23:04.088Z,47.70
2023-05-25T14:24:36.292Z,48.90
2023-05-25T14:27:51.726Z,52.63
2023-05-25T14:29:23.941Z,50.29
2023-05-25T14:30:56.592Z,48.19
2023-05-25T14:32:28.852Z,49.81
2023-05-25T14:34:01.090Z,48.78
2023-05-25T14:35:33.331Z,49.22
2023-05-25T14:37:05.492Z,50.42
2023-05-25T14:38:37.669Z,49.08
2023-05-25T14:40:10.399Z,47.82
2023-05-25T14:41:42.593Z,48.06
2023-05-25T14:43:14.787Z,48.83
2023-05-25T14:44:47.086Z,46.77
2023-05-25T14:46:19.754Z,46.37
2023-05-25T14:48:00.758Z,48.50
2023-05-25T14:49:40.334Z,47.39
2023-05-25T14:51:12.497Z,46.65
2023-05-25T14:52:44.728Z,44.61
2023-05-25T14:54:17.158Z,45.86
2023-05-25T14:55:49.270Z,46.05
2023-05-25T14:57:21.506Z,44.88
2023-05-25T14:58:53.688Z,44.57
2023-05-25T15:00:26.818Z,46.37
2023-05-25T15:01:59.036Z,45.63
2023-05-25T15:03:31.392Z,46.53
2023-05-25T15:05:03.634Z,47.42
2023-05-25T15:06:37.299Z,46.50
2023-05-25T15:08:09.553Z,47.90
2023-05-25T15:09:42.727Z,50.14
2023-05-25T15:11:14.705Z,50.21
2023-05-25T15:12:46.863Z,50.59
2023-05-25T15:14:19.033Z,50.11
2023-05-25T15:15:55.001Z,50.04
2023-05-25T15:17:27.224Z,49.53
2023-05-25T15:18:59.466Z,50.38
2023-05-25T15:20:33.012Z,48.95
2023-05-25T15:22:05.331Z,50.05
2023-05-25T15:23:37.839Z,48.46
2023-05-25T15:25:10.094Z,48.28
2023-05-25T15:26:42.468Z,47.55
2023-05-25T15:28:14.773Z,47.54
2023-05-25T15:29:47.740Z,47.68
2023-05-25T15:31:19.935Z,46.81
2023-05-25T15:32:52.217Z,47.28
2023-05-25T15:34:24.458Z,50.76
2023-05-25T15:35:56.697Z,46.97
2023-05-25T15:37:30.543Z,44.75
2023-05-25T15:39:02.767Z,45.03
2023-05-25T15:40:37.460Z,45.72
2023-05-25T15:42:09.655Z,46.26
2023-05-25T15:43:41.912Z,47.65
2023-05-25T15:45:14.105Z,47.92
2023-05-25T15:46:46.465Z,49.06
2023-05-25T15:48:18.830Z,47.99
2023-05-25T15:49:51.051Z,47.95
2023-05-25T15:51:23.287Z,48.59
2023-05-25T15:52:55.487Z,48.87
2023-05-25T15:54:27.584Z,48.85
2023-05-25T15:55:59.829Z,48.88
2023-05-25T15:57:32.067Z,48.16
2023-05-25T15:59:05.280Z,49.84
2023-05-25T16:02:17.164Z,47.86
2023-05-25T16:03:49.558Z,47.29
2023-05-25T16:05:21.776Z,47.26
2023-05-25T16:06:53.999Z,47.88
2023-05-25T16:08:26.387Z,47.63
2023-05-25T16:09:58.576Z,48.11
2023-05-25T16:11:32.318Z,48.35
2023-05-25T16:13:04.588Z,49.19
2023-05-25T16:14:36.820Z,49.11
2023-05-25T16:16:09.240Z,47.02
2023-05-25T16:17:41.557Z,47.29
2023-05-25T16:19:14.209Z,47.81
2023-05-25T16:20:46.780Z,47.84
2023-05-25T16:22:19.035Z,49.02
2023-05-25T16:23:51.669Z,50.64
2023-05-25T16:25:23.795Z,49.31
2023-05-25T16:26:57.998Z,49.76
2023-05-25T16:28:30.258Z,49.13
2023-05-25T16:30:02.465Z,50.14
2023-05-25T16:31:35.139Z,52.03
2023-05-25T16:33:07.497Z,52.22
2023-05-25T16:34:39.728Z,53.45
2023-05-25T16:36:13.953Z,53.59
2023-05-25T16:37:46.293Z,53.74
2023-05-25T16:39:20.936Z,53.38
2023-05-25T16:40:53.161Z,53.44
2023-05-25T16:42:26.764Z,55.14
2023-05-25T16:43:59.302Z,55.71
2023-05-25T16:45:31.572Z,56.68
2023-05-25T16:47:03.807Z,58.56
2023-05-25T16:48:36.054Z,60.18
2023-05-25T16:50:08.795Z,61.13
2023-05-25T16:51:41.189Z,61.57
2023-05-25T16:53:13.452Z,62.74
2023-05-25T16:54:45.769Z,62.98
2023-05-25T16:56:18.762Z,64.01
2023-05-25T16:57:51.025Z,65.02
2023-05-25T16:59:23.236Z,65.46
2023-05-25T17:02:56.438Z,68.17
2023-05-25T17:04:28.642Z,69.74
2023-05-25T17:06:00.930Z,70.87
2023-05-25T17:07:36.606Z,71.78
2023-05-25T17:09:09.646Z,71.88
2023-05-25T17:10:43.896Z,72.25
2023-05-25T17:12:16.235Z,74.02
2023-05-25T17:13:48.564Z,76.14
2023-05-25T17:15:20.935Z,76.87
2023-05-25T17:16:53.229Z,77.45
2023-05-25T17:18:25.493Z,78.31
2023-05-25T17:19:57.723Z,78.28
2023-05-25T17:21:30.145Z,78.69
2023-05-25T17:23:02.359Z,78.53
2023-05-25T17:24:34.527Z,79.00
2023-05-25T17:26:06.704Z,79.72
2023-05-25T17:27:38.917Z,79.43
2023-05-25T17:29:11.264Z,77.91
2023-05-25T17:30:43.461Z,77.97
2023-05-25T17:33:48.485Z,79.18
2023-05-25T17:35:20.771Z,80.39
2023-05-25T17:36:53.023Z,80.68
2023-05-25T17:38:25.778Z,81.66
2023-05-25T17:39:58.017Z,81.97
2023-05-25T17:41:31.233Z,82.15
2023-05-25T17:43:03.673Z,82.84
2023-05-25T17:44:40.497Z,82.94
2023-05-25T17:46:12.758Z,83.37
2023-05-25T17:47:45.177Z,84.02
2023-05-25T17:49:17.659Z,83.68
2023-05-25T17:50:49.945Z,84.32
2023-05-25T17:52:22.187Z,84.37
2023-05-25T17:53:54.375Z,83.86
2023-05-25T17:55:27.437Z,82.74
2023-05-25T17:56:59.772Z,82.48
2023-05-25T17:58:34.572Z,82.90
2023-05-25T18:00:07.466Z,83.60
2023-05-25T18:01:40.194Z,84.20
2023-05-25T18:03:12.645Z,84.54
2023-05-25T18:06:16.938Z,85.32
2023-05-25T18:07:49.160Z,85.37
2023-05-25T18:09:21.598Z,85.81
2023-05-25T18:10:53.872Z,85.79
2023-05-25T18:12:26.335Z,86.66
2023-05-25T18:13:58.531Z,87.00
2023-05-25T18:15:30.669Z,87.34
2023-05-25T19:09:44.390Z,87.74
2023-05-25T19:11:17.100Z,87.65
2023-05-25T19:12:49.255Z,88.00
2023-05-25T19:14:21.420Z,87.88
2023-05-25T19:15:53.624Z,87.70
2023-05-25T19:17:25.936Z,87.65
2023-05-25T19:18:58.132Z,87.54
2023-05-25T19:20:32.972Z,87.52
2023-05-25T19:22:06.789Z,87.17
2023-05-25T19:23:39.058Z,86.44
2023-05-25T19:25:11.271Z,86.43
2023-05-25T19:26:43.426Z,86.43
2023-05-25T19:28:15.702Z,86.65
2023-05-25T19:29:48.391Z,86.57
2023-05-25T19:31:21.935Z,86.95
2023-05-25T19:32:54.366Z,87.04
2023-05-25T19:34:26.595Z,87.10
2023-05-25T19:36:00.071Z,87.47
2023-05-25T19:37:32.246Z,87.30
2023-05-25T19:39:05.343Z,87.06
2023-05-25T19:40:37.599Z,87.35
2023-05-25T19:42:09.923Z,87.44
2023-05-25T19:43:42.378Z,87.56
2023-05-25T19:45:14.527Z,88.06
2023-05-25T19:46:46.676Z,87.96
2023-05-25T19:48:20.666Z,88.01
2023-05-25T19:49:53.659Z,88.16
2023-05-25T19:51:26.221Z,87.91
2023-05-25T19:53:01.531Z,87.96
2023-05-25T19:54:33.804Z,87.96
2023-05-25T19:56:06.303Z,87.83
2023-05-25T19:57:38.949Z,88.10
2023-05-25T19:59:11.128Z,88.16
2023-05-25T20:00:43.356Z,88.29
2023-05-25T20:02:15.623Z,88.59
2023-05-25T20:03:47.932Z,88.66
2023-05-25T20:05:22.431Z,88.62
2023-05-25T20:06:54.896Z,88.14
2023-05-25T20:08:27.821Z,88.19
2023-05-25T20:10:00.239Z,88.22
2023-05-25T20:11:32.526Z,88.45
2023-05-25T20:14:38.627Z,88.26
2023-05-25T20:16:10.894Z,88.59
2023-05-25T20:17:43.141Z,88.66
2023-05-25T20:19:15.685Z,88.66
2023-05-25T20:20:47.924Z,89.13
2023-05-25T20:22:20.230Z,89.27
2023-05-25T20:23:52.462Z,89.30
2023-05-25T20:25:24.659Z,89.45
2023-05-25T20:27:00.374Z,89.74
2023-05-25T20:28:32.553Z,89.70
2023-05-25T20:30:08.458Z,89.84
2023-05-25T20:31:40.879Z,89.89
2023-05-25T20:33:13.136Z,89.70
2023-05-25T20:34:45.375Z,89.67
2023-05-25T20:36:17.740Z,89.80
2023-05-25T20:37:49.969Z,89.68
2023-05-25T20:39:22.148Z,89.74
2023-05-25T20:40:54.351Z,90.04
2023-05-25T20:42:26.580Z,90.12
2023-05-25T20:43:58.906Z,90.20
2023-05-25T20:45:31.423Z,90.26
2023-05-25T20:48:40.219Z,90.54
2023-05-25T20:50:13.396Z,90.56
2023-05-25T20:51:50.264Z,90.48
2023-05-25T20:53:22.758Z,90.60
2023-05-25T20:54:55.066Z,90.50
2023-05-25T20:56:27.863Z,90.35
2023-05-25T20:58:01.427Z,90.32
2023-05-25T20:59:33.647Z,90.46
2023-05-25T21:01:06.519Z,90.58
2023-05-25T21:02:38.856Z,90.67
2023-05-25T21:04:11.347Z,90.72
2023-05-25T21:05:43.812Z,90.82
2023-05-25T21:07:16.190Z,90.87
2023-05-25T21:08:48.376Z,90.99
2023-05-25T21:10:20.543Z,91.06
2023-05-25T21:11:52.625Z,91.03
2023-05-25T21:13:24.817Z,91.15
2023-05-25T21:14:57.024Z,90.84
2023-05-25T21:16:29.421Z,90.86
2023-05-25T21:18:03.813Z,90.80